Brillion, Wisconsin
Current Conditions -  °F | °C
As of 9:22 PM on Friday 24 Oct 2014 (Local Time) from KMTW Reporting Station
Haze Haze  
Wind Chill: 52°   Ceiling: 3300
Heat Index: 52°   Visibility: 5mi
Dew Point: 52°   Wind: 8mph
Humidity: 100%   Direction: 190°S
Pressure: 29.89"   Gusts: NA
Location:  44.18°N, 88.06°W
Report Text: KMTW 250222Z AUTO 19007KT 5SM BR FEW003 OVC033 11/11 A2989 RMK AO2
Loading
Personal Weather Stations






























Interactive Weather Map New forecast layout! Learn more

10-Day Weather Forecast

Advertisements
Track Severe Weather on mobile